Time;durP1;ratioP1;P1;durP2;ratioP2;P2;SDS_P1;SDS_P2;PMS_P1;PMS_P2;Temp;Humidity;BMP_temperature;BMP_pressure;BME280_temperature;BME280_humidity;BME280_pressure;Samples;Min_cycle;Max_cycle;Signal;HPM_P1;HPM_P2
2022/03/07 05:02:37;;;;;;;47.88;18.40;;;0.00;99.90;;;;;;4909578;29;20278;-68
2022/03/07 05:05:04;;;;;;;51.03;18.15;;;-0.10;99.90;;;;;;4911826;29;20578;-67
2022/03/07 05:07:31;;;;;;;26.92;16.25;;;-0.20;99.90;;;;;;4914280;29;20691;-69
2022/03/07 05:09:58;;;;;;;37.67;17.73;;;-0.20;99.90;;;;;;4914036;29;20210;-67
2022/03/07 05:12:24;;;;;;;30.05;16.58;;;-0.20;99.90;;;;;;4914914;29;20332;-68
2022/03/07 05:14:51;;;;;;;40.92;19.52;;;-0.20;99.90;;;;;;4899098;29;20215;-68
2022/03/07 05:17:18;;;;;;;47.35;17.33;;;-0.20;99.90;;;;;;4898720;29;20620;-67
2022/03/07 05:19:47;;;;;;;38.25;18.23;;;-0.20;99.90;;;;;;4915535;29;20226;-66
2022/03/07 05:22:13;;;;;;;31.88;16.50;;;-0.20;99.90;;;;;;4916391;29;20321;-69
2022/03/07 05:24:40;;;;;;;44.15;18.85;;;-0.10;99.90;;;;;;4907991;29;20211;-68
2022/03/07 05:27:08;;;;;;;35.42;17.85;;;-0.10;99.90;;;;;;4900058;29;20211;-69
2022/03/07 05:29:35;;;;;;;41.30;19.88;;;0.00;99.90;;;;;;4916651;29;20213;-68
2022/03/07 05:32:02;;;;;;;34.80;20.77;;;0.10;99.90;;;;;;4917711;29;20238;-67
2022/03/07 05:34:29;;;;;;;38.90;19.98;;;0.10;99.90;;;;;;4918284;29;20214;-68
2022/03/07 05:36:57;;;;;;;40.58;22.35;;;0.10;99.90;;;;;;4917688;29;20270;-66
2022/03/07 05:39:24;;;;;;;40.35;19.27;;;0.20;99.90;;;;;;4917880;29;20213;-67
2022/03/07 05:41:51;;;;;;;38.83;18.52;;;0.20;99.90;;;;;;4917980;29;20746;-67
2022/03/07 05:44:17;;;;;;;34.97;19.77;;;0.20;99.90;;;;;;4919409;29;20675;-67
2022/03/07 05:46:44;;;;;;;45.05;21.35;;;0.20;99.90;;;;;;4917739;29;20211;-67
2022/03/07 05:49:11;;;;;;;43.60;19.95;;;0.20;99.90;;;;;;4917742;29;20680;-67
2022/03/07 05:51:37;;;;;;;46.78;21.70;;;0.20;99.90;;;;;;4916890;29;20231;-68
2022/03/07 05:54:05;;;;;;;36.75;20.52;;;0.30;99.90;;;;;;4917525;29;20211;-67
2022/03/07 05:56:32;;;;;;;51.22;21.67;;;0.30;99.90;;;;;;4917076;29;20214;-68
2022/03/07 05:58:59;;;;;;;45.38;21.30;;;0.30;99.90;;;;;;4917587;29;20214;-69
2022/03/07 06:01:26;;;;;;;46.70;20.90;;;0.30;99.90;;;;;;4909768;29;20290;-68
2022/03/07 06:03:52;;;;;;;42.72;20.63;;;0.30;99.90;;;;;;4909532;29;20203;-67
2022/03/07 06:06:19;;;;;;;42.95;21.90;;;0.30;99.90;;;;;;4905623;29;20218;-67
2022/03/07 06:08:46;;;;;;;51.08;22.55;;;0.30;99.90;;;;;;4917202;29;20234;-66
2022/03/07 06:11:14;;;;;;;61.97;22.48;;;0.30;99.90;;;;;;4915547;29;20301;-67
2022/03/07 06:13:41;;;;;;;39.45;20.45;;;0.30;99.90;;;;;;4917350;29;20719;-68
2022/03/07 06:16:07;;;;;;;41.20;18.45;;;0.30;99.90;;;;;;4914502;29;20206;-67
2022/03/07 06:18:34;;;;;;;47.63;21.25;;;0.30;99.90;;;;;;4916764;29;20234;-67
2022/03/07 06:21:01;;;;;;;44.47;22.50;;;0.20;99.90;;;;;;4916560;29;20254;-68
2022/03/07 06:23:27;;;;;;;55.50;19.38;;;0.30;99.90;;;;;;4917832;29;20293;-68
2022/03/07 06:25:54;;;;;;;48.15;18.65;;;0.30;99.90;;;;;;4917328;29;20219;-67
2022/03/07 06:28:22;;;;;;;48.65;20.45;;;0.30;99.90;;;;;;4907314;29;20237;-67
2022/03/07 06:30:49;;;;;;;60.28;21.80;;;0.30;99.90;;;;;;4908206;29;20234;-67
2022/03/07 06:33:17;;;;;;;43.20;19.50;;;0.30;99.90;;;;;;4916462;29;20209;-68
2022/03/07 06:35:44;;;;;;;47.15;21.13;;;0.30;99.90;;;;;;4916910;29;20705;-69
2022/03/07 06:38:11;;;;;;;55.67;26.92;;;0.30;99.90;;;;;;4917874;29;20214;-68
2022/03/07 06:40:37;;;;;;;65.78;27.15;;;0.30;99.90;;;;;;4915543;29;20234;-68
2022/03/07 06:43:04;;;;;;;86.20;38.90;;;0.30;99.90;;;;;;4917339;29;20213;-68
2022/03/07 06:45:32;;;;;;;72.43;35.58;;;0.30;99.90;;;;;;4917346;29;20309;-67
2022/03/07 06:48:00;;;;;;;48.05;23.45;;;0.40;99.90;;;;;;4915839;29;20310;-68
2022/03/07 06:50:27;;;;;;;51.05;22.98;;;0.50;99.90;;;;;;4915963;29;20309;-68
2022/03/07 06:52:54;;;;;;;42.75;20.65;;;0.50;99.90;;;;;;4912769;29;20582;-67
2022/03/07 06:55:21;;;;;;;40.08;22.60;;;0.50;99.90;;;;;;4898064;29;20208;-69
2022/03/07 06:57:48;;;;;;;42.72;23.05;;;0.60;99.90;;;;;;4914347;29;20214;-68
2022/03/07 07:00:16;;;;;;;43.22;21.50;;;0.60;99.90;;;;;;4916168;29;20210;-68
2022/03/07 07:02:46;;;;;;;42.90;22.13;;;0.70;99.90;;;;;;4912787;29;20210;-67
2022/03/07 07:05:13;;;;;;;40.72;22.95;;;0.70;99.90;;;;;;4905187;29;20210;-68
2022/03/07 07:07:42;;;;;;;38.70;21.73;;;0.70;99.90;;;;;;4897647;29;20203;-68
2022/03/07 07:10:09;;;;;;;51.33;24.83;;;0.80;99.90;;;;;;4906949;29;20214;-68
2022/03/07 07:12:36;;;;;;;39.35;21.27;;;0.80;99.90;;;;;;4915247;29;20234;-68
2022/03/07 07:15:06;;;;;;;38.80;21.88;;;0.80;99.90;;;;;;4915590;29;20230;-68
2022/03/07 07:17:33;;;;;;;35.35;20.65;;;0.80;99.90;;;;;;4902934;29;20207;-69
2022/03/07 07:20:01;;;;;;;42.72;22.50;;;0.70;99.90;;;;;;4906246;29;20211;-66
2022/03/07 07:22:28;;;;;;;42.78;22.50;;;0.90;99.90;;;;;;4899535;29;20626;-66
2022/03/07 07:24:54;;;;;;;45.10;21.95;;;0.90;99.90;;;;;;4903586;29;20207;-67
2022/03/07 07:27:21;;;;;;;43.25;21.55;;;1.00;99.90;;;;;;4901999;29;20214;-68
2022/03/07 07:29:48;;;;;;;55.13;24.58;;;1.00;99.90;;;;;;4901141;29;20207;-67
2022/03/07 07:32:14;;;;;;;36.50;23.65;;;1.10;99.90;;;;;;4911625;29;20325;-66
2022/03/07 07:34:41;;;;;;;47.22;26.35;;;1.20;99.90;;;;;;4914899;29;20258;-67
2022/03/07 07:37:09;;;;;;;47.30;23.45;;;1.30;99.90;;;;;;4914746;29;20214;-68
2022/03/07 07:39:36;;;;;;;38.40;21.00;;;1.30;99.90;;;;;;4914926;29;20229;-68
2022/03/07 07:42:04;;;;;;;41.00;21.90;;;1.40;99.90;;;;;;4917760;29;20234;-66
2022/03/07 07:44:31;;;;;;;33.72;19.67;;;1.40;99.90;;;;;;4927793;29;20298;-66
2022/03/07 07:46:57;;;;;;;46.78;23.83;;;1.40;99.90;;;;;;4928914;29;20237;-66
2022/03/07 07:49:24;;;;;;;37.55;21.38;;;1.50;99.90;;;;;;4930872;29;20258;-67
2022/03/07 07:51:51;;;;;;;44.33;22.63;;;1.60;99.90;;;;;;4927612;29;20307;-66
2022/03/07 07:54:19;;;;;;;42.40;20.95;;;1.60;99.90;;;;;;4929387;29;20675;-67
2022/03/07 07:56:46;;;;;;;38.55;19.90;;;1.60;99.90;;;;;;4929748;29;20221;-68
2022/03/07 07:59:13;;;;;;;34.47;20.48;;;1.70;99.90;;;;;;4929019;29;20296;-67
2022/03/07 08:01:39;;;;;;;36.63;22.48;;;1.80;99.90;;;;;;4929449;29;20250;-68
2022/03/07 08:04:07;;;;;;;38.92;22.40;;;1.90;99.90;;;;;;4930968;29;20239;-67
2022/03/07 08:06:34;;;;;;;33.38;20.67;;;1.90;99.90;;;;;;4927062;29;20225;-68
2022/03/07 08:09:03;;;;;;;34.55;20.02;;;2.00;99.90;;;;;;4921319;29;20207;-66
2022/03/07 08:11:31;;;;;;;30.50;20.67;;;2.10;99.90;;;;;;4929793;29;20266;-67
2022/03/07 08:13:58;;;;;;;37.03;21.75;;;2.10;99.90;;;;;;4925352;29;20203;-67
2022/03/07 08:16:25;;;;;;;34.25;19.88;;;2.10;99.90;;;;;;4900510;29;20211;-68
2022/03/07 08:18:52;;;;;;;38.63;23.45;;;2.10;99.90;;;;;;4906675;29;20215;-68
2022/03/07 08:21:21;;;;;;;36.80;23.15;;;2.10;99.90;;;;;;4914396;29;20616;-68
2022/03/07 08:23:48;;;;;;;30.77;20.85;;;2.10;99.90;;;;;;4913979;29;20211;-68
2022/03/07 08:26:14;;;;;;;32.40;20.15;;;2.20;99.90;;;;;;4914212;29;20207;-68
2022/03/07 08:28:43;;;;;;;35.75;20.15;;;2.20;99.90;;;;;;4914266;29;20234;-68
2022/03/07 08:31:09;;;;;;;34.20;22.92;;;2.30;99.90;;;;;;4912500;29;20234;-68
2022/03/07 08:33:36;;;;;;;38.30;24.10;;;2.40;99.90;;;;;;4910475;29;20215;-68
2022/03/07 08:36:03;;;;;;;34.58;20.58;;;2.50;99.90;;;;;;4899131;29;20656;-68
2022/03/07 08:38:31;;;;;;;43.08;23.48;;;2.50;99.90;;;;;;4913561;29;20845;-66
2022/03/07 08:40:58;;;;;;;34.83;21.08;;;2.50;99.90;;;;;;4912978;29;20226;-67
2022/03/07 08:43:25;;;;;;;30.23;19.55;;;2.40;99.90;;;;;;4911637;29;20265;-67
2022/03/07 08:45:53;;;;;;;39.65;22.48;;;2.40;99.90;;;;;;4912218;29;20214;-66
2022/03/07 08:48:20;;;;;;;40.38;21.85;;;2.40;99.90;;;;;;4909506;29;20203;-66
2022/03/07 08:50:48;;;;;;;37.35;21.50;;;2.40;99.90;;;;;;4904948;29;20243;-66
2022/03/07 08:53:16;;;;;;;43.33;22.63;;;2.40;99.90;;;;;;4909719;29;20227;-67
2022/03/07 08:55:43;;;;;;;32.88;20.50;;;2.40;99.90;;;;;;4913272;29;20203;-66
2022/03/07 08:58:10;;;;;;;37.15;19.17;;;2.40;99.90;;;;;;4896702;29;20222;-68
2022/03/07 09:00:36;;;;;;;31.50;19.40;;;2.50;99.90;;;;;;4912520;29;20583;-68
2022/03/07 09:03:05;;;;;;;28.20;19.45;;;2.60;99.90;;;;;;4913370;29;20206;-67
2022/03/07 09:05:31;;;;;;;44.78;27.15;;;2.60;99.90;;;;;;4919416;29;20293;-67
2022/03/07 09:07:58;;;;;;;34.97;21.58;;;2.60;99.90;;;;;;4920270;29;20202;-67
2022/03/07 09:10:25;;;;;;;32.35;19.10;;;2.70;99.90;;;;;;4918426;29;20613;-67
2022/03/07 09:12:54;;;;;;;35.28;20.33;;;2.70;99.90;;;;;;4919353;29;20307;-68
2022/03/07 09:15:21;;;;;;;32.88;19.98;;;2.80;99.90;;;;;;4919571;29;20210;-67
2022/03/07 09:17:47;;;;;;;33.33;20.67;;;2.90;99.90;;;;;;4919413;29;20210;-67
2022/03/07 09:20:17;;;;;;;28.45;20.73;;;2.90;99.90;;;;;;4918427;29;20214;-67
2022/03/07 09:22:44;;;;;;;29.05;18.33;;;2.90;99.90;;;;;;4919563;29;20201;-68
2022/03/07 09:25:12;;;;;;;22.27;14.32;;;3.00;99.90;;;;;;4919138;29;20651;-67
2022/03/07 09:27:39;;;;;;;18.80;13.52;;;3.10;99.90;;;;;;4918460;29;20203;-66
2022/03/07 09:30:07;;;;;;;14.23;11.32;;;3.10;99.90;;;;;;4919422;29;20229;-66
2022/03/07 09:32:34;;;;;;;12.98;10.13;;;3.10;99.90;;;;;;4919774;29;20272;-67
2022/03/07 09:35:01;;;;;;;15.45;11.43;;;3.30;99.90;;;;;;4917826;29;20634;-67
2022/03/07 09:37:29;;;;;;;17.55;12.73;;;3.40;99.90;;;;;;4919232;29;20213;-67
2022/03/07 09:39:55;;;;;;;13.55;11.05;;;3.50;99.90;;;;;;4918766;29;20218;-67
2022/03/07 09:42:22;;;;;;;16.55;9.20;;;3.50;99.90;;;;;;4918795;29;20706;-67
2022/03/07 09:44:49;;;;;;;11.45;9.95;;;3.60;99.90;;;;;;4919643;29;20219;-67
2022/03/07 09:47:16;;;;;;;14.82;10.00;;;3.70;99.90;;;;;;4911026;29;20214;-67
2022/03/07 09:49:43;;;;;;;21.65;9.77;;;3.70;99.90;;;;;;4917924;29;20804;-67
2022/03/07 09:52:12;;;;;;;13.55;9.65;;;3.80;99.90;;;;;;4913497;29;20742;-68
2022/03/07 09:54:40;;;;;;;12.10;8.35;;;3.80;99.90;;;;;;4911799;29;20210;-67
2022/03/07 09:57:07;;;;;;;9.57;8.35;;;3.80;99.90;;;;;;4918447;29;20214;-67
2022/03/07 09:59:35;;;;;;;8.77;7.88;;;4.00;99.90;;;;;;4917353;29;20569;-66
2022/03/07 10:02:04;;;;;;;7.47;6.38;;;4.10;99.90;;;;;;4917858;29;20760;-67
2022/03/07 10:04:32;;;;;;;13.55;8.60;;;4.10;99.90;;;;;;4917920;29;20282;-68
2022/03/07 10:07:03;;;;;;;8.35;7.55;;;4.20;99.90;;;;;;4908302;29;20300;-68
2022/03/07 10:09:29;;;;;;;9.57;7.35;;;4.20;99.90;;;;;;4918586;29;20202;-67
2022/03/07 10:12:00;;;;;;;11.20;7.47;;;4.20;99.90;;;;;;4918508;29;20317;-67
2022/03/07 10:14:32;;;;;;;8.20;7.07;;;4.30;99.90;;;;;;4918177;29;20310;-68
2022/03/07 10:16:59;;;;;;;11.25;6.78;;;4.40;99.90;;;;;;4901526;29;20301;-67
2022/03/07 10:19:26;;;;;;;9.18;4.82;;;4.50;99.90;;;;;;4915302;29;20258;-68
2022/03/07 10:21:53;;;;;;;6.53;4.60;;;4.50;99.90;;;;;;4914189;29;20631;-67
2022/03/07 10:24:31;;;;;;;4.53;4.22;;;4.60;99.90;;;;;;4915695;29;20771;-68
2022/03/07 10:26:59;;;;;;;4.45;4.22;;;4.80;99.90;;;;;;4909389;29;20222;-68
2022/03/07 10:29:26;;;;;;;4.60;4.20;;;4.80;99.90;;;;;;4906836;29;20204;-68
2022/03/07 10:31:53;;;;;;;4.75;4.30;;;4.80;99.90;;;;;;4912104;29;20226;-67
2022/03/07 10:34:19;;;;;;;8.27;6.25;;;4.90;99.90;;;;;;4916240;29;20214;-67
2022/03/07 10:36:47;;;;;;;7.10;5.15;;;4.90;99.90;;;;;;4914116;29;20216;-67
2022/03/07 10:39:22;;;;;;;8.10;6.25;;;5.00;99.90;;;;;;4914801;29;20198;-67
2022/03/07 10:41:49;;;;;;;6.10;5.60;;;5.00;99.90;;;;;;4914222;29;20225;-67
2022/03/07 10:44:29;;;;;;;6.03;5.53;;;5.10;99.90;;;;;;4914567;29;20221;-67
2022/03/07 10:47:07;;;;;;;5.93;5.20;;;5.10;99.90;;;;;;4915264;29;20667;-68
2022/03/07 10:49:34;;;;;;;6.90;6.20;;;5.20;99.90;;;;;;4920216;29;20316;-68
2022/03/07 10:52:04;;;;;;;6.55;5.97;;;5.20;99.90;;;;;;4916118;29;20290;-67
2022/03/07 10:54:36;;;;;;;6.95;6.20;;;5.20;99.90;;;;;;4912646;29;20217;-67
2022/03/07 10:57:04;;;;;;;6.10;5.50;;;5.30;99.90;;;;;;4907516;29;20199;-67
2022/03/07 10:59:33;;;;;;;6.53;5.97;;;5.30;99.90;;;;;;4907480;29;20685;-66
2022/03/07 11:02:01;;;;;;;6.18;5.20;;;5.40;99.90;;;;;;4905395;29;20226;-68
2022/03/07 11:04:29;;;;;;;5.32;4.93;;;5.60;99.90;;;;;;4914800;29;20274;-69
2022/03/07 11:06:57;;;;;;;7.05;6.03;;;5.60;99.90;;;;;;4909222;29;20211;-68
2022/03/07 11:09:23;;;;;;;9.07;5.47;;;5.70;99.90;;;;;;4915601;29;20258;-66
2022/03/07 11:11:51;;;;;;;8.23;5.50;;;5.70;99.90;;;;;;4913937;29;20588;-67
2022/03/07 11:14:18;;;;;;;4.55;4.18;;;5.80;99.90;;;;;;4909511;29;20211;-67
2022/03/07 11:16:49;;;;;;;5.15;4.65;;;5.90;99.90;;;;;;4915678;29;20206;-68
2022/03/07 11:19:18;;;;;;;4.53;4.15;;;5.90;99.90;;;;;;4926680;29;20664;-67
2022/03/07 11:21:46;;;;;;;32.25;16.80;;;6.00;99.90;;;;;;4922014;29;20226;-67
2022/03/07 11:24:13;;;;;;;6.20;5.70;;;6.00;99.90;;;;;;4910875;29;20646;-67
2022/03/07 11:26:42;;;;;;;8.10;6.03;;;6.10;99.90;;;;;;4907783;29;20202;-67
2022/03/07 11:29:09;;;;;;;6.55;5.82;;;6.20;99.90;;;;;;4912125;29;20238;-67
2022/03/07 11:31:35;;;;;;;5.75;5.25;;;6.30;99.90;;;;;;4913804;29;20237;-68
2022/03/07 11:34:07;;;;;;;5.82;4.93;;;6.40;99.90;;;;;;4912043;29;20317;-67
2022/03/07 11:36:38;;;;;;;6.30;5.45;;;6.50;99.90;;;;;;4915358;29;20253;-68
2022/03/07 11:39:06;;;;;;;7.40;6.10;;;6.40;99.90;;;;;;4910387;29;20210;-67
2022/03/07 11:41:36;;;;;;;6.53;5.60;;;6.40;99.90;;;;;;4913761;29;20234;-68
2022/03/07 11:44:05;;;;;;;5.45;5.05;;;6.50;99.90;;;;;;4913042;29;20888;-67
2022/03/07 11:46:33;;;;;;;5.47;4.90;;;6.60;99.90;;;;;;4919238;29;20270;-67
2022/03/07 11:49:01;;;;;;;5.30;4.80;;;6.60;99.90;;;;;;4896266;29;20289;-67
2022/03/07 11:51:31;;;;;;;4.82;4.40;;;6.60;99.90;;;;;;4902349;29;20241;-68
2022/03/07 11:53:58;;;;;;;3.95;3.78;;;6.60;99.90;;;;;;4907192;29;20223;-68
2022/03/07 11:56:27;;;;;;;4.22;4.03;;;6.70;99.90;;;;;;4909661;29;20210;-67
2022/03/07 11:58:56;;;;;;;4.43;4.13;;;6.80;99.90;;;;;;4911955;29;20207;-67
2022/03/07 12:01:25;;;;;;;7.25;5.25;;;6.90;99.90;;;;;;4914584;29;20253;-68
2022/03/07 12:03:52;;;;;;;4.20;3.90;;;6.90;99.90;;;;;;4919390;29;20211;-68
2022/03/07 12:06:22;;;;;;;4.97;4.28;;;6.90;99.90;;;;;;4899112;29;20637;-67
2022/03/07 12:08:52;;;;;;;5.32;4.75;;;7.00;99.90;;;;;;4905321;29;20278;-67
2022/03/07 12:11:30;;;;;;;4.85;4.45;;;7.00;99.90;;;;;;4912355;29;20234;-68
2022/03/07 12:14:02;;;;;;;5.00;4.50;;;7.00;99.90;;;;;;4904951;29;20226;-67
2022/03/07 12:16:31;;;;;;;3.10;3.00;;;7.10;99.90;;;;;;4909838;29;20302;-67
2022/03/07 12:19:07;;;;;;;4.47;4.13;;;7.20;99.90;;;;;;4911495;29;20218;-67
2022/03/07 12:21:34;;;;;;;3.75;3.55;;;7.20;99.90;;;;;;4910603;29;20260;-66
2022/03/07 12:24:04;;;;;;;3.65;3.38;;;7.30;99.90;;;;;;4911184;29;20207;-66
2022/03/07 12:26:31;;;;;;;2.60;2.50;;;7.30;99.90;;;;;;4912892;29;20545;-67
2022/03/07 12:28:58;;;;;;;3.85;3.03;;;7.40;99.90;;;;;;4914163;29;20467;-67
2022/03/07 12:31:25;;;;;;;3.38;3.20;;;7.50;99.90;;;;;;4912569;29;20332;-67
2022/03/07 12:33:52;;;;;;;2.25;1.90;;;7.60;99.90;;;;;;4914295;29;20302;-67
2022/03/07 12:36:18;;;;;;;3.17;3.00;;;7.50;99.90;;;;;;4906876;29;20245;-68
2022/03/07 12:38:47;;;;;;;2.75;2.65;;;7.60;99.90;;;;;;4906503;29;20226;-68
2022/03/07 12:41:18;;;;;;;3.03;2.83;;;7.60;99.90;;;;;;4914303;29;20230;-68
2022/03/07 12:43:45;;;;;;;2.85;2.65;;;7.60;99.90;;;;;;4915562;29;20202;-69
2022/03/07 12:46:13;;;;;;;2.35;1.77;;;7.60;99.90;;;;;;4918503;29;20293;-69
2022/03/07 12:48:43;;;;;;;1.70;1.70;;;7.60;99.90;;;;;;4921762;29;20221;-68
2022/03/07 12:51:11;;;;;;;1.90;1.80;;;7.70;99.90;;;;;;4920842;29;20234;-68
2022/03/07 12:53:47;;;;;;;1.17;1.17;;;7.80;99.90;;;;;;4923654;29;20237;-68
2022/03/07 12:56:16;;;;;;;2.00;1.90;;;7.90;99.90;;;;;;4937645;29;20197;-68
2022/03/07 12:58:51;;;;;;;1.83;1.77;;;7.90;99.90;;;;;;4939303;29;20206;-66
2022/03/07 13:01:19;;;;;;;5.35;2.45;;;7.90;99.90;;;;;;4939298;29;20298;-66
2022/03/07 13:03:48;;;;;;;2.47;2.00;;;7.90;99.90;;;;;;4938944;29;20210;-68
2022/03/07 13:06:15;;;;;;;3.20;2.90;;;8.00;99.90;;;;;;4933097;29;20217;-68
2022/03/07 13:08:50;;;;;;;3.00;2.90;;;8.00;99.90;;;;;;4917041;29;20253;-68
2022/03/07 13:11:30;;;;;;;4.80;3.22;;;8.00;99.90;;;;;;4915288;29;20241;-68
2022/03/07 13:13:57;;;;;;;3.33;2.95;;;8.00;99.90;;;;;;4916211;29;20577;-67
2022/03/07 13:16:26;;;;;;;2.63;2.53;;;8.00;99.90;;;;;;4915803;29;20215;-68
2022/03/07 13:19:03;;;;;;;2.17;2.17;;;8.00;99.90;;;;;;4914048;29;20214;-67
2022/03/07 13:21:34;;;;;;;1.60;1.60;;;8.10;99.90;;;;;;4912098;29;21090;-67
2022/03/07 13:24:01;;;;;;;1.92;1.90;;;8.10;99.90;;;;;;4914517;29;20195;-68
2022/03/07 13:26:30;;;;;;;2.30;2.20;;;8.00;99.90;;;;;;4912565;29;20233;-69
2022/03/07 13:29:05;;;;;;;1.75;1.75;;;8.00;99.90;;;;;;4912750;29;20325;-69
2022/03/07 13:31:42;;;;;;;2.15;2.05;;;8.10;99.90;;;;;;4912237;29;20273;-68
2022/03/07 13:34:09;;;;;;;2.10;2.00;;;8.20;99.90;;;;;;4894590;29;20599;-67
2022/03/07 13:36:40;;;;;;;2.28;2.15;;;8.20;99.90;;;;;;4893893;29;20541;-69
2022/03/07 13:39:21;;;;;;;2.15;2.15;;;8.20;99.90;;;;;;4904879;29;20297;-68
2022/03/07 13:41:51;;;;;;;2.65;2.20;;;8.30;99.90;;;;;;4912595;29;20237;-68
2022/03/07 13:44:18;;;;;;;2.13;2.03;;;8.30;99.90;;;;;;4913443;29;20853;-69
2022/03/07 13:47:02;;;;;;;1.75;1.75;;;8.20;99.90;;;;;;4912778;29;20210;-69
2022/03/07 13:49:44;;;;;;;2.28;2.17;;;8.20;99.90;;;;;;4913623;29;20211;-69
2022/03/07 13:52:13;;;;;;;2.55;2.45;;;8.20;99.90;;;;;;4916476;29;20226;-69
2022/03/07 13:54:40;;;;;;;1.60;1.50;;;8.20;99.90;;;;;;4916085;29;20230;-68
2022/03/07 13:57:09;;;;;;;2.13;1.85;;;8.20;99.90;;;;;;4912578;29;20259;-69
2022/03/07 13:59:36;;;;;;;4.50;4.20;;;8.20;99.90;;;;;;4910002;29;20309;-68
2022/03/07 14:02:13;;;;;;;1.60;1.60;;;8.20;99.90;;;;;;4914848;29;20282;-69
2022/03/07 14:04:54;;;;;;;1.52;1.52;;;8.20;99.90;;;;;;4912281;29;20297;-69
2022/03/07 14:07:23;;;;;;;2.47;2.35;;;8.20;99.90;;;;;;4907581;29;20213;-69
2022/03/07 14:09:54;;;;;;;1.80;1.80;;;8.20;99.90;;;;;;4915780;29;20287;-69
2022/03/07 14:12:30;;;;;;;1.92;1.83;;;8.20;99.90;;;;;;4913279;29;20253;-69
2022/03/07 14:14:59;;;;;;;1.90;1.80;;;8.30;99.90;;;;;;4910134;29;20590;-68
2022/03/07 14:17:26;;;;;;;3.03;2.65;;;8.30;99.90;;;;;;4900229;29;20207;-68
2022/03/07 14:19:52;;;;;;;16.90;13.30;;;8.30;99.90;;;;;;4914478;29;20667;-68
2022/03/07 14:22:19;;;;;;;2.08;2.08;;;8.20;99.90;;;;;;4916126;29;20233;-68
2022/03/07 14:24:47;;;;;;;1.70;1.70;;;8.30;99.90;;;;;;4916101;29;20261;-67
2022/03/07 14:27:13;;;;;;;1.60;1.60;;;8.40;99.90;;;;;;4916659;29;20213;-68
2022/03/07 14:29:43;;;;;;;1.52;1.52;;;8.40;99.90;;;;;;4917286;29;20282;-68
2022/03/07 14:32:10;;;;;;;1.55;1.48;;;8.50;99.90;;;;;;4913877;29;20316;-68
2022/03/07 14:34:37;;;;;;;1.60;1.60;;;8.50;99.20;;;;;;4916061;29;20855;-69
2022/03/07 14:37:05;;;;;;;2.15;2.05;;;8.50;99.70;;;;;;4911892;29;20206;-67
2022/03/07 14:39:31;;;;;;;1.60;1.60;;;8.50;99.80;;;;;;4908198;29;20221;-66
2022/03/07 14:41:59;;;;;;;1.80;1.80;;;8.50;99.90;;;;;;4915711;29;20226;-68
2022/03/07 14:44:26;;;;;;;3.22;2.10;;;8.50;99.90;;;;;;4916492;29;20198;-67
2022/03/07 14:46:54;;;;;;;2.58;2.30;;;8.50;99.60;;;;;;4915018;29;20210;-67
2022/03/07 14:49:21;;;;;;;1.70;1.70;;;8.50;99.10;;;;;;4915447;29;20218;-67
2022/03/07 14:51:48;;;;;;;2.15;1.95;;;8.50;99.20;;;;;;4914429;29;20238;-68
2022/03/07 14:54:15;;;;;;;1.58;1.35;;;8.50;99.40;;;;;;4901719;29;20318;-68
2022/03/07 14:56:42;;;;;;;1.42;1.42;;;8.50;99.30;;;;;;4899318;29;20211;-67
2022/03/07 14:59:08;;;;;;;1.95;1.83;;;8.50;98.60;;;;;;4915190;29;20206;-67
2022/03/07 15:01:35;;;;;;;1.95;1.80;;;8.40;99.00;;;;;;4904032;29;20250;-67
2022/03/07 15:04:04;;;;;;;1.75;1.75;;;8.40;98.30;;;;;;4916376;29;20213;-69
2022/03/07 15:06:32;;;;;;;1.48;1.42;;;8.40;97.50;;;;;;4918203;29;20210;-68
2022/03/07 15:09:00;;;;;;;1.30;1.30;;;8.50;96.30;;;;;;4919726;29;20293;-67
2022/03/07 15:11:27;;;;;;;1.10;1.10;;;8.50;95.40;;;;;;4917856;29;20252;-68
2022/03/07 15:13:53;;;;;;;1.63;1.50;;;8.50;95.10;;;;;;4915685;29;20237;-67
2022/03/07 15:16:20;;;;;;;1.55;1.45;;;8.50;95.00;;;;;;4911859;29;20211;-68
2022/03/07 15:18:47;;;;;;;1.05;1.05;;;8.50;94.90;;;;;;4908445;29;20230;-68
2022/03/07 15:21:15;;;;;;;1.70;1.60;;;8.50;94.70;;;;;;4913419;29;20277;-68
2022/03/07 15:23:42;;;;;;;1.65;1.20;;;8.50;94.90;;;;;;4907496;29;20492;-67
2022/03/07 15:26:08;;;;;;;5.45;1.08;;;8.50;95.60;;;;;;4910087;29;20211;-67
2022/03/07 15:28:35;;;;;;;1.27;1.27;;;8.60;95.60;;;;;;4908773;29;20218;-68
2022/03/07 15:31:02;;;;;;;1.40;1.40;;;8.60;95.70;;;;;;4909928;29;20531;-67
2022/03/07 15:33:29;;;;;;;1.33;1.33;;;8.60;96.00;;;;;;4898633;29;20333;-69
2022/03/07 15:35:55;;;;;;;1.35;1.30;;;8.50;95.70;;;;;;4906461;29;20285;-67
2022/03/07 15:38:23;;;;;;;1.60;1.60;;;8.50;95.60;;;;;;4914996;29;20211;-68
2022/03/07 15:40:53;;;;;;;1.50;1.40;;;8.60;95.80;;;;;;4911945;29;20230;-67
2022/03/07 15:43:20;;;;;;;1.00;1.00;;;8.60;95.50;;;;;;4904250;29;20682;-67
2022/03/07 15:45:46;;;;;;;1.50;1.40;;;8.50;95.20;;;;;;4910781;29;20225;-67
2022/03/07 15:48:13;;;;;;;0.82;0.82;;;8.50;95.30;;;;;;4911330;29;20266;-67
2022/03/07 15:50:40;;;;;;;1.23;0.68;;;8.50;95.40;;;;;;4908071;29;20735;-67
2022/03/07 15:53:07;;;;;;;1.10;1.10;;;8.50;95.00;;;;;;4911980;29;20214;-68
2022/03/07 15:55:35;;;;;;;1.52;1.10;;;8.40;95.40;;;;;;4913377;29;20241;-67
2022/03/07 15:58:02;;;;;;;0.85;0.85;;;8.40;95.30;;;;;;4909315;29;20207;-68
2022/03/07 16:00:29;;;;;;;0.90;0.90;;;8.30;94.90;;;;;;4895977;29;20215;-67
2022/03/07 16:02:55;;;;;;;1.10;1.10;;;8.30;94.60;;;;;;4904511;29;20215;-68
2022/03/07 16:05:22;;;;;;;0.98;0.93;;;8.30;94.80;;;;;;4913458;29;20223;-68
2022/03/07 16:07:49;;;;;;;0.70;0.70;;;8.20;94.70;;;;;;4914573;29;20210;-68
2022/03/07 16:10:16;;;;;;;1.10;1.10;;;8.20;94.50;;;;;;4913909;29;20680;-68
2022/03/07 16:12:44;;;;;;;2.45;0.77;;;8.10;94.70;;;;;;4910570;29;20222;-68
2022/03/07 16:15:12;;;;;;;1.30;1.30;;;8.10;94.50;;;;;;4906169;29;20227;-67
2022/03/07 16:17:39;;;;;;;1.15;1.15;;;8.10;94.80;;;;;;4910397;29;20328;-68
2022/03/07 16:20:08;;;;;;;0.93;0.93;;;8.00;94.70;;;;;;4904129;29;20282;-68
2022/03/07 16:22:34;;;;;;;0.98;0.98;;;8.00;94.90;;;;;;4919753;29;20955;-67
2022/03/07 16:25:02;;;;;;;1.15;1.15;;;7.90;95.20;;;;;;4923529;29;20205;-67
2022/03/07 16:27:29;;;;;;;1.20;1.20;;;7.90;95.10;;;;;;4913679;29;20218;-68
2022/03/07 16:29:57;;;;;;;0.90;0.90;;;7.80;95.00;;;;;;4912184;29;20667;-67
2022/03/07 16:32:23;;;;;;;1.00;1.00;;;7.80;94.90;;;;;;4908377;29;20231;-68
2022/03/07 16:34:50;;;;;;;0.50;0.50;;;7.80;95.20;;;;;;4908517;29;20569;-66
2022/03/07 16:37:17;;;;;;;1.02;0.60;;;7.80;95.10;;;;;;4900792;29;20207;-67
2022/03/07 16:39:44;;;;;;;1.50;0.98;;;7.80;95.30;;;;;;4909948;29;20203;-67
2022/03/07 16:42:11;;;;;;;0.63;0.63;;;7.80;95.20;;;;;;4914027;29;20226;-68
2022/03/07 16:44:38;;;;;;;0.90;0.90;;;7.70;95.30;;;;;;4925038;29;20202;-67
2022/03/07 16:47:06;;;;;;;0.77;0.77;;;7.60;95.30;;;;;;4918906;29;20214;-68
2022/03/07 16:49:33;;;;;;;0.93;0.93;;;7.60;95.70;;;;;;4923550;29;20210;-67
2022/03/07 16:52:00;;;;;;;0.90;0.90;;;7.50;96.30;;;;;;4906277;29;20244;-68
2022/03/07 16:54:27;;;;;;;1.10;1.10;;;7.40;97.00;;;;;;4900142;29;20820;-67
2022/03/07 16:56:53;;;;;;;1.08;1.00;;;7.30;97.30;;;;;;4915246;29;20209;-67
2022/03/07 16:59:20;;;;;;;1.30;1.30;;;7.20;97.70;;;;;;4926208;29;20213;-67
2022/03/07 17:01:47;;;;;;;1.33;1.33;;;7.20;98.00;;;;;;4922535;29;20723;-68
2022/03/07 17:04:15;;;;;;;1.08;1.02;;;7.10;98.30;;;;;;4921976;29;20194;-68
2022/03/07 17:06:42;;;;;;;2.03;1.30;;;7.00;98.50;;;;;;4911521;29;20218;-67
2022/03/07 17:09:09;;;;;;;1.30;1.30;;;6.90;98.90;;;;;;4910945;29;20793;-68
2022/03/07 17:11:35;;;;;;;2.28;1.63;;;6.80;99.20;;;;;;4920543;29;20240;-69
2022/03/07 17:14:02;;;;;;;2.05;1.95;;;6.70;99.80;;;;;;4922572;29;20304;-67
2022/03/07 17:16:30;;;;;;;1.77;1.67;;;6.60;99.90;;;;;;4916343;29;20218;-66
2022/03/07 17:18:56;;;;;;;1.50;1.50;;;6.60;99.90;;;;;;4928714;29;20290;-68
2022/03/07 17:21:24;;;;;;;1.38;1.33;;;6.50;99.90;;;;;;4911930;29;20223;-67
2022/03/07 17:23:51;;;;;;;1.70;1.70;;;6.40;99.90;;;;;;4912584;29;20217;-68
2022/03/07 17:26:18;;;;;;;1.70;1.60;;;6.40;99.90;;;;;;4921947;29;20214;-67
2022/03/07 17:28:45;;;;;;;1.65;1.65;;;6.30;99.90;;;;;;4927479;29;20230;-67
2022/03/07 17:31:12;;;;;;;2.90;1.75;;;6.30;99.90;;;;;;4909277;29;20227;-67
2022/03/07 17:33:39;;;;;;;1.25;1.25;;;6.30;99.90;;;;;;4916766;29;20216;-67
2022/03/07 17:36:06;;;;;;;1.52;1.52;;;6.20;99.90;;;;;;4915678;29;20214;-67
2022/03/07 17:38:34;;;;;;;1.95;1.75;;;6.10;99.90;;;;;;4909991;29;20207;-67
2022/03/07 17:41:00;;;;;;;1.90;1.80;;;6.00;99.90;;;;;;4916007;29;20226;-67
2022/03/07 17:43:27;;;;;;;2.75;2.03;;;6.00;99.90;;;;;;4920145;29;20210;-67
2022/03/07 17:45:54;;;;;;;3.60;3.40;;;5.80;99.90;;;;;;4925595;29;20665;-66
2022/03/07 17:48:21;;;;;;;3.10;2.95;;;5.70;99.90;;;;;;4917896;29;20731;-66
2022/03/07 17:50:48;;;;;;;3.63;3.00;;;5.60;99.90;;;;;;4914720;29;20231;-68
2022/03/07 17:53:15;;;;;;;2.80;2.70;;;5.50;99.90;;;;;;4912662;29;20759;-66